createdAt,value
2023-07-11T00:00:55.161Z,98.80
2023-07-11T00:03:19.291Z,98.70
2023-07-11T00:05:43.497Z,99.00
2023-07-11T00:08:08.423Z,99.10
2023-07-11T00:10:34.070Z,99.30
2023-07-11T00:12:58.165Z,99.30
2023-07-11T00:15:21.997Z,99.50
2023-07-11T00:17:47.138Z,99.60
2023-07-11T00:20:15.113Z,99.70
2023-07-11T00:22:38.941Z,99.90
2023-07-11T00:25:02.791Z,99.90
2023-07-11T00:27:28.012Z,99.90
2023-07-11T00:29:52.874Z,99.90
2023-07-11T00:32:16.780Z,99.90
2023-07-11T00:34:41.266Z,99.90
2023-07-11T00:37:05.684Z,99.90
2023-07-11T00:39:31.109Z,99.90
2023-07-11T00:41:54.781Z,99.90
2023-07-11T00:44:19.989Z,99.90
2023-07-11T00:46:45.542Z,99.90
2023-07-11T00:49:12.995Z,99.90
2023-07-11T00:51:42.319Z,99.90
2023-07-11T00:54:09.411Z,99.90
2023-07-11T00:56:38.599Z,99.90
2023-07-11T00:59:03.849Z,99.90
2023-07-11T01:01:29.403Z,99.90
2023-07-11T01:03:55.274Z,99.90
2023-07-11T01:06:23.177Z,99.90
2023-07-11T01:08:48.215Z,99.90
2023-07-11T01:11:12.002Z,99.90
2023-07-11T01:13:35.877Z,99.90
2023-07-11T01:16:01.190Z,99.90
2023-07-11T01:18:28.720Z,99.90
2023-07-11T01:20:53.300Z,99.90
2023-07-11T01:23:18.458Z,99.90
2023-07-11T01:25:42.233Z,99.90
2023-07-11T01:28:06.462Z,99.90
2023-07-11T01:30:30.665Z,99.90
2023-07-11T01:32:55.566Z,99.90
2023-07-11T01:35:19.726Z,99.90
2023-07-11T01:37:43.894Z,99.90
2023-07-11T01:40:10.602Z,99.90
2023-07-11T01:42:34.464Z,99.90
2023-07-11T01:44:58.253Z,99.90
2023-07-11T01:47:21.964Z,99.90
2023-07-11T01:49:45.708Z,99.90
2023-07-11T01:52:13.629Z,99.90
2023-07-11T01:54:37.520Z,99.90
2023-07-11T01:57:02.885Z,99.90
2023-07-11T01:59:26.634Z,99.90
2023-07-11T02:01:50.585Z,99.90
2023-07-11T02:04:14.346Z,99.90
2023-07-11T02:06:38.109Z,99.90
2023-07-11T02:09:03.580Z,99.90
2023-07-11T02:11:27.849Z,99.90
2023-07-11T02:13:53.185Z,99.90
2023-07-11T02:16:17.172Z,99.90
2023-07-11T02:18:40.906Z,99.90
2023-07-11T02:21:04.717Z,99.90
2023-07-11T02:23:29.117Z,99.90
2023-07-11T02:25:54.413Z,99.90
2023-07-11T02:28:18.204Z,99.90
2023-07-11T02:30:43.405Z,99.90
2023-07-11T02:33:07.552Z,99.90
2023-07-11T02:35:32.127Z,99.90
2023-07-11T02:37:55.764Z,99.90
2023-07-11T02:40:19.939Z,99.90
2023-07-11T02:42:43.820Z,99.90
2023-07-11T02:45:08.524Z,99.90
2023-07-11T02:47:35.516Z,99.90
2023-07-11T02:50:00.369Z,99.90
2023-07-11T02:52:24.155Z,99.90
2023-07-11T02:54:47.957Z,99.90
2023-07-11T02:57:13.580Z,99.90
2023-07-11T02:59:37.573Z,99.90
2023-07-11T03:02:01.390Z,99.90
2023-07-11T03:04:26.898Z,99.90
2023-07-11T03:06:50.666Z,99.90
2023-07-11T03:09:14.432Z,99.90
2023-07-11T03:11:38.205Z,99.90
2023-07-11T03:14:02.112Z,99.90
2023-07-11T03:16:25.966Z,99.90
2023-07-11T03:18:49.836Z,99.90
2023-07-11T03:21:14.956Z,99.90
2023-07-11T03:23:38.805Z,99.90
2023-07-11T03:26:03.059Z,99.90
2023-07-11T03:28:27.086Z,99.90
2023-07-11T03:30:52.556Z,99.90
2023-07-11T03:33:16.645Z,99.90
2023-07-11T03:35:40.372Z,99.90
2023-07-11T03:38:05.537Z,99.90
2023-07-11T03:40:30.870Z,99.90
2023-07-11T03:42:55.185Z,99.90
2023-07-11T03:45:19.035Z,99.90
2023-07-11T03:47:42.987Z,99.90
2023-07-11T03:50:07.577Z,99.90
2023-07-11T03:52:31.611Z,99.90
2023-07-11T03:54:56.770Z,99.90
2023-07-11T03:57:20.643Z,99.40
2023-07-11T03:59:44.570Z,98.60
2023-07-11T04:02:08.449Z,98.10
2023-07-11T04:04:32.151Z,97.90
2023-07-11T04:06:55.996Z,97.50
2023-07-11T04:09:19.674Z,96.60
2023-07-11T04:11:44.885Z,96.30
2023-07-11T04:14:08.784Z,96.10
2023-07-11T04:16:34.258Z,95.80
2023-07-11T04:18:58.311Z,95.00
2023-07-11T04:21:22.201Z,94.10
2023-07-11T04:23:46.126Z,93.80
2023-07-11T04:26:10.057Z,93.20
2023-07-11T04:28:35.250Z,92.60
2023-07-11T04:30:59.253Z,92.10
2023-07-11T04:33:22.988Z,91.60
2023-07-11T04:35:47.496Z,91.30
2023-07-11T04:38:11.313Z,90.70
2023-07-11T04:40:35.256Z,90.30
2023-07-11T04:43:01.282Z,90.10
2023-07-11T04:45:26.642Z,89.50
2023-07-11T04:47:50.427Z,89.20
2023-07-11T04:50:14.268Z,87.20
2023-07-11T04:52:38.005Z,85.50
2023-07-11T04:55:01.757Z,84.30
2023-07-11T04:57:26.538Z,83.50
2023-07-11T04:59:50.466Z,81.60
2023-07-11T05:02:15.722Z,80.10
2023-07-11T05:04:41.328Z,79.90
2023-07-11T05:07:05.502Z,79.20
2023-07-11T05:09:29.623Z,78.10
2023-07-11T05:11:53.470Z,76.40
2023-07-11T05:14:17.379Z,75.60
2023-07-11T05:16:41.279Z,75.40
2023-07-11T05:19:06.497Z,73.70
2023-07-11T05:21:30.673Z,74.50
2023-07-11T05:23:56.383Z,73.80
2023-07-11T05:26:20.978Z,73.20
2023-07-11T05:28:44.961Z,72.60
2023-07-11T05:31:10.170Z,71.60
2023-07-11T05:33:34.069Z,71.40
2023-07-11T05:36:18.850Z,69.80
2023-07-11T05:38:45.434Z,69.50
2023-07-11T05:41:09.235Z,69.40
2023-07-11T05:43:33.105Z,68.30
2023-07-11T05:45:56.842Z,67.60
2023-07-11T05:48:20.661Z,66.80
2023-07-11T05:50:44.313Z,65.90
2023-07-11T05:53:09.481Z,65.30
2023-07-11T05:55:33.206Z,64.30
2023-07-11T05:57:57.002Z,63.20
2023-07-11T06:00:21.725Z,62.60
2023-07-11T06:02:45.718Z,61.80
2023-07-11T06:05:10.559Z,60.70
2023-07-11T06:07:35.364Z,59.50
2023-07-11T06:10:00.705Z,59.50
2023-07-11T06:12:24.600Z,59.30
2023-07-11T06:14:48.358Z,59.90
2023-07-11T06:17:12.204Z,59.00
2023-07-11T06:19:36.948Z,59.80
2023-07-11T06:22:00.843Z,59.70
2023-07-11T06:24:24.734Z,59.50
2023-07-11T06:26:50.237Z,58.80
2023-07-11T06:29:14.261Z,58.10
2023-07-11T06:31:38.273Z,57.60
2023-07-11T06:34:02.189Z,59.00
2023-07-11T06:36:26.248Z,58.40
2023-07-11T06:38:50.112Z,58.20
2023-07-11T06:41:14.449Z,56.60
2023-07-11T06:43:39.623Z,55.30
2023-07-11T06:46:04.525Z,55.20
2023-07-11T06:48:30.437Z,55.70
2023-07-11T06:50:56.095Z,55.40
2023-07-11T06:53:20.202Z,54.70
2023-07-11T06:55:47.870Z,53.60
2023-07-11T06:58:11.702Z,54.90
2023-07-11T07:00:36.909Z,54.60
2023-07-11T07:03:00.768Z,54.40
2023-07-11T07:05:24.670Z,53.30
2023-07-11T07:07:55.065Z,51.90
2023-07-11T07:10:25.326Z,51.80
2023-07-11T07:12:49.113Z,51.80
2023-07-11T07:15:14.633Z,52.10
2023-07-11T07:17:41.665Z,51.30
2023-07-11T07:20:06.166Z,50.70
2023-07-11T07:22:29.927Z,51.50
2023-07-11T07:24:53.825Z,51.70
2023-07-11T07:27:27.889Z,52.10
2023-07-11T07:29:53.764Z,52.80
2023-07-11T07:32:17.473Z,51.50
2023-07-11T07:34:42.852Z,51.40
2023-07-11T07:37:07.298Z,52.70
2023-07-11T07:39:31.419Z,51.50
2023-07-11T07:41:55.240Z,51.80
2023-07-11T07:44:19.482Z,51.90
2023-07-11T07:46:43.244Z,51.80
2023-07-11T07:49:07.024Z,51.90
2023-07-11T07:51:32.208Z,52.00
2023-07-11T07:53:55.980Z,52.30
2023-07-11T07:56:21.339Z,53.10
2023-07-11T07:58:45.375Z,52.70
2023-07-11T08:01:09.578Z,53.00
2023-07-11T08:03:33.852Z,52.80
2023-07-11T08:06:13.607Z,52.50
2023-07-11T08:08:40.664Z,52.90
2023-07-11T08:11:06.075Z,52.80
2023-07-11T08:13:31.008Z,54.50
2023-07-11T08:15:58.339Z,54.80
2023-07-11T08:18:22.117Z,56.10
2023-07-11T08:20:45.984Z,57.40
2023-07-11T08:23:09.938Z,58.20
2023-07-11T08:25:35.516Z,57.70
2023-07-11T08:27:59.369Z,57.80
2023-07-11T08:30:23.241Z,58.70
2023-07-11T08:32:47.048Z,59.40
2023-07-11T08:35:11.365Z,59.40
2023-07-11T08:37:35.499Z,60.00
2023-07-11T08:39:59.156Z,61.00
2023-07-11T08:42:33.082Z,60.70
2023-07-11T08:45:05.921Z,60.50
2023-07-11T08:47:34.600Z,61.10
2023-07-11T08:50:04.211Z,61.30
2023-07-11T08:52:30.764Z,60.30
2023-07-11T08:55:01.247Z,59.70
2023-07-11T08:57:30.676Z,59.10
2023-07-11T09:00:01.801Z,59.90
2023-07-11T09:02:38.960Z,59.20
2023-07-11T09:05:05.678Z,58.40
2023-07-11T09:07:37.976Z,60.00
2023-07-11T09:10:01.740Z,60.10
2023-07-11T09:12:37.612Z,59.70
2023-07-11T09:15:08.247Z,60.80
2023-07-11T09:17:42.723Z,60.90
2023-07-11T09:20:18.084Z,60.50
2023-07-11T09:22:51.372Z,60.90
2023-07-11T09:25:19.473Z,61.30
2023-07-11T09:27:49.330Z,60.90
2023-07-11T09:30:19.606Z,61.90
2023-07-11T09:32:43.899Z,61.70
2023-07-11T09:35:23.494Z,62.10
2023-07-11T09:37:50.860Z,62.00
2023-07-11T09:40:21.460Z,61.80
2023-07-11T09:42:51.298Z,61.80
2023-07-11T09:45:16.693Z,63.00
2023-07-11T09:47:41.612Z,62.70
2023-07-11T09:50:25.804Z,62.50
2023-07-11T09:53:01.200Z,62.50
2023-07-11T09:55:31.672Z,64.60
2023-07-11T09:57:56.864Z,66.20
2023-07-11T10:00:23.042Z,66.00
2023-07-11T10:02:48.482Z,65.90
2023-07-11T10:05:17.159Z,66.80
2023-07-11T10:07:40.878Z,67.30
2023-07-11T10:10:06.426Z,66.00
2023-07-11T10:12:31.406Z,65.80
2023-07-11T10:14:59.153Z,65.80
2023-07-11T10:17:26.502Z,65.30
2023-07-11T10:19:53.330Z,66.80
2023-07-11T10:22:23.055Z,66.20
2023-07-11T10:24:47.142Z,64.90
2023-07-11T10:27:15.483Z,65.90
2023-07-11T10:29:44.778Z,64.40
2023-07-11T10:32:15.641Z,65.20
2023-07-11T10:34:46.122Z,64.90
2023-07-11T10:37:18.514Z,64.10
2023-07-11T10:39:45.556Z,64.90
2023-07-11T10:42:17.346Z,63.20
2023-07-11T10:44:46.326Z,62.30
2023-07-11T10:47:12.456Z,62.60
2023-07-11T10:49:42.433Z,62.80
2023-07-11T10:52:10.830Z,62.60
2023-07-11T10:54:45.444Z,62.40
2023-07-11T10:57:15.501Z,61.20
2023-07-11T10:59:40.443Z,60.50
2023-07-11T11:02:12.783Z,61.80
2023-07-11T11:04:57.088Z,61.50
2023-07-11T11:07:31.601Z,61.20
2023-07-11T11:10:05.500Z,61.40
2023-07-11T11:12:36.507Z,61.70
2023-07-11T11:15:21.230Z,62.50
2023-07-11T11:17:58.170Z,62.10
2023-07-11T11:20:27.690Z,63.10
2023-07-11T11:23:03.891Z,63.30
2023-07-11T11:25:31.574Z,63.00
2023-07-11T11:28:09.309Z,63.50
2023-07-11T11:30:41.699Z,62.70
2023-07-11T11:33:21.873Z,62.70
2023-07-11T11:35:56.779Z,63.90
2023-07-11T11:38:34.025Z,63.80
2023-07-11T11:41:01.906Z,63.30
2023-07-11T11:43:30.485Z,62.90
2023-07-11T11:46:29.230Z,62.70
2023-07-11T11:51:19.141Z,62.70
2023-07-11T11:53:46.480Z,61.50
2023-07-11T11:56:22.508Z,61.20
2023-07-11T11:59:01.645Z,60.50
2023-07-11T12:01:38.027Z,61.00
2023-07-11T12:04:01.825Z,60.70
2023-07-11T12:06:35.809Z,61.60
2023-07-11T12:09:25.475Z,61.60
2023-07-11T12:12:07.516Z,61.80
2023-07-11T12:14:39.661Z,62.30
2023-07-11T12:17:03.521Z,61.60
2023-07-11T12:19:34.245Z,61.90
2023-07-11T12:22:06.496Z,62.00
2023-07-11T12:24:47.263Z,62.70
2023-07-11T12:27:25.270Z,63.30
2023-07-11T12:29:53.593Z,62.40
2023-07-11T12:32:51.489Z,63.00
2023-07-11T12:35:21.806Z,63.00
2023-07-11T12:37:58.351Z,63.90
2023-07-11T12:40:29.393Z,64.60
2023-07-11T12:42:54.832Z,62.50
2023-07-11T12:45:21.734Z,62.30
2023-07-11T12:47:48.580Z,63.50
2023-07-11T12:50:20.789Z,63.90
2023-07-11T12:52:44.550Z,64.30
2023-07-11T12:55:13.472Z,65.20
2023-07-11T12:57:37.286Z,65.30
2023-07-11T13:00:01.110Z,64.80
2023-07-11T13:02:31.606Z,63.50
2023-07-11T13:05:00.088Z,63.60
2023-07-11T13:07:28.892Z,64.20
2023-07-11T13:09:54.957Z,64.10
2023-07-11T13:12:23.594Z,64.00
2023-07-11T13:14:49.759Z,65.00
2023-07-11T13:17:15.129Z,64.60
2023-07-11T13:19:38.967Z,65.10
2023-07-11T13:22:02.728Z,64.90
2023-07-11T13:24:30.482Z,65.10
2023-07-11T13:26:55.498Z,65.00
2023-07-11T13:29:23.524Z,65.50
2023-07-11T13:31:49.682Z,64.60
2023-07-11T13:34:15.937Z,64.90
2023-07-11T13:36:41.674Z,64.60
2023-07-11T13:39:07.995Z,64.40
2023-07-11T13:41:34.831Z,64.40
2023-07-11T13:44:02.793Z,64.50
2023-07-11T13:46:33.029Z,64.30
2023-07-11T13:48:57.162Z,65.20
2023-07-11T13:51:23.880Z,65.10
2023-07-11T13:53:49.517Z,65.00
2023-07-11T13:56:13.292Z,64.70
2023-07-11T13:58:37.093Z,64.40
2023-07-11T14:01:00.976Z,63.90
2023-07-11T14:03:27.285Z,65.10
2023-07-11T14:05:55.322Z,65.30
2023-07-11T14:08:20.695Z,65.10
2023-07-11T14:10:44.663Z,64.70
2023-07-11T14:13:14.401Z,65.20
2023-07-11T14:15:38.219Z,65.90
2023-07-11T14:18:02.072Z,65.70
2023-07-11T14:20:29.132Z,65.70
2023-07-11T14:22:53.147Z,64.60
2023-07-11T14:25:18.730Z,64.20
2023-07-11T14:27:42.531Z,64.80
2023-07-11T14:30:07.178Z,65.00
2023-07-11T14:32:30.894Z,64.50
2023-07-11T14:34:54.709Z,64.50
2023-07-11T14:37:20.257Z,64.00
2023-07-11T14:39:44.045Z,64.30
2023-07-11T14:42:21.744Z,63.90
2023-07-11T14:44:45.587Z,62.90
2023-07-11T14:47:12.271Z,63.10
2023-07-11T14:49:36.180Z,63.50
2023-07-11T14:51:59.893Z,63.10
2023-07-11T14:54:30.724Z,63.30
2023-07-11T14:59:32.930Z,63.60
2023-07-11T15:01:59.689Z,63.40
2023-07-11T15:06:57.713Z,63.80
2023-07-11T15:11:56.069Z,64.10
2023-07-11T15:16:52.899Z,64.50
2023-07-11T15:19:20.855Z,64.80
2023-07-11T15:21:44.949Z,64.50
2023-07-11T15:24:14.564Z,65.20
2023-07-11T15:26:39.669Z,58.10
2023-07-11T15:29:04.586Z,65.70
2023-07-11T15:31:29.201Z,65.90
2023-07-11T15:33:53.051Z,66.10
2023-07-11T15:36:16.881Z,65.90
2023-07-11T15:38:40.924Z,65.90
2023-07-11T15:41:08.076Z,65.10
2023-07-11T15:43:39.553Z,64.70
2023-07-11T15:46:05.464Z,65.20
2023-07-11T15:48:30.505Z,65.50
2023-07-11T15:50:54.997Z,64.70
2023-07-11T15:53:18.944Z,64.60
2023-07-11T15:55:43.726Z,64.40
2023-07-11T15:58:15.423Z,64.60
2023-07-11T16:00:40.681Z,65.00
2023-07-11T16:03:04.711Z,64.80
2023-07-11T16:05:34.452Z,64.90
2023-07-11T16:07:58.261Z,65.80
2023-07-11T16:10:27.043Z,65.50
2023-07-11T16:12:51.090Z,65.70
2023-07-11T16:15:15.235Z,65.80
2023-07-11T16:17:40.912Z,66.10
2023-07-11T16:20:13.046Z,66.40
2023-07-11T16:22:36.695Z,67.10
2023-07-11T16:25:00.505Z,68.10
2023-07-11T16:27:24.474Z,68.80
2023-07-11T16:29:49.248Z,69.30
2023-07-11T16:32:14.468Z,70.20
2023-07-11T16:34:40.462Z,70.80
2023-07-11T16:37:04.480Z,71.00
2023-07-11T16:39:30.443Z,71.40
2023-07-11T16:41:54.626Z,71.90
2023-07-11T16:44:19.290Z,72.10
2023-07-11T16:46:46.696Z,72.40
2023-07-11T16:49:17.552Z,71.80
2023-07-11T16:51:43.550Z,72.00
2023-07-11T16:54:16.583Z,72.30
2023-07-11T16:56:40.412Z,72.40
2023-07-11T16:59:04.139Z,72.70
2023-07-11T17:01:27.960Z,73.10
2023-07-11T17:03:51.970Z,73.10
2023-07-11T17:06:24.776Z,73.40
2023-07-11T17:08:53.179Z,73.20
2023-07-11T17:11:17.165Z,73.10
2023-07-11T17:13:44.083Z,72.30
2023-07-11T17:16:08.917Z,72.80
2023-07-11T17:18:32.986Z,72.60
2023-07-11T17:20:58.001Z,73.20
2023-07-11T17:23:22.354Z,73.20
2023-07-11T17:25:48.094Z,73.40
2023-07-11T17:28:16.906Z,73.50
2023-07-11T17:30:40.657Z,73.80
2023-07-11T17:33:04.570Z,73.60
2023-07-11T17:35:29.300Z,74.00
2023-07-11T17:37:53.063Z,74.40
2023-07-11T17:40:22.033Z,74.20
2023-07-11T17:42:56.530Z,74.50
2023-07-11T17:45:44.099Z,74.70
2023-07-11T17:48:18.460Z,74.90
2023-07-11T17:50:43.469Z,75.30
2023-07-11T17:53:07.371Z,75.30
2023-07-11T17:55:31.925Z,75.50
2023-07-11T17:57:57.256Z,75.70
2023-07-11T18:00:22.455Z,76.00
2023-07-11T18:03:01.474Z,76.40
2023-07-11T18:05:26.669Z,76.50
2023-07-11T18:07:52.803Z,77.00
2023-07-11T18:10:21.759Z,77.50
2023-07-11T18:12:56.762Z,77.90
2023-07-11T18:15:35.546Z,77.90
2023-07-11T18:18:04.106Z,78.10
2023-07-11T18:20:28.305Z,77.90
2023-07-11T18:22:55.017Z,78.30
2023-07-11T18:25:22.933Z,78.90
2023-07-11T18:27:47.411Z,79.00
2023-07-11T18:30:20.302Z,79.30
2023-07-11T18:32:48.470Z,79.60
2023-07-11T18:35:13.253Z,79.80
2023-07-11T18:37:37.254Z,80.00
2023-07-11T18:40:01.587Z,80.20
2023-07-11T18:42:27.558Z,80.50
2023-07-11T18:44:52.935Z,80.70
2023-07-11T18:47:22.387Z,80.80
2023-07-11T18:49:48.697Z,81.10
2023-07-11T18:52:16.110Z,81.20
2023-07-11T18:54:40.151Z,81.00
2023-07-11T18:57:07.442Z,81.20
2023-07-11T18:59:31.267Z,81.30
2023-07-11T19:01:55.207Z,81.50
2023-07-11T19:04:19.074Z,81.70
2023-07-11T19:06:46.199Z,82.10
2023-07-11T19:09:13.527Z,81.90
2023-07-11T19:11:39.507Z,82.10
2023-07-11T19:14:03.340Z,82.50
2023-07-11T19:16:28.715Z,82.70
2023-07-11T19:18:52.575Z,82.80
2023-07-11T19:21:16.417Z,83.10
2023-07-11T19:23:41.707Z,83.20
2023-07-11T19:26:15.177Z,83.40
2023-07-11T19:28:39.029Z,83.50
2023-07-11T19:31:03.519Z,83.60
2023-07-11T19:33:27.635Z,83.90
2023-07-11T19:35:53.626Z,83.80
2023-07-11T19:38:19.411Z,83.90
2023-07-11T19:40:44.805Z,83.70
2023-07-11T19:43:08.711Z,83.90
2023-07-11T19:45:36.869Z,83.90
2023-07-11T19:48:02.544Z,84.20
2023-07-11T19:50:37.309Z,84.50
2023-07-11T19:53:01.824Z,84.70
2023-07-11T19:55:25.924Z,85.00
2023-07-11T19:57:51.069Z,85.10
2023-07-11T20:00:32.830Z,85.30
2023-07-11T20:02:57.300Z,85.40
2023-07-11T20:05:21.179Z,85.80
2023-07-11T20:07:44.990Z,85.90
2023-07-11T20:10:18.514Z,86.30
2023-07-11T20:12:43.255Z,86.70
2023-07-11T20:15:13.770Z,87.10
2023-07-11T20:17:37.560Z,87.40
2023-07-11T20:20:03.137Z,87.60
2023-07-11T20:22:27.008Z,87.80
2023-07-11T20:24:50.761Z,87.80
2023-07-11T20:27:16.462Z,88.00
2023-07-11T20:29:41.156Z,88.20
2023-07-11T20:32:14.819Z,88.30
2023-07-11T20:34:39.992Z,89.20
2023-07-11T20:37:04.150Z,90.00
2023-07-11T20:39:27.964Z,90.70
2023-07-11T20:41:51.747Z,91.00
2023-07-11T20:44:15.513Z,90.00
2023-07-11T20:46:39.177Z,88.20
2023-07-11T20:49:04.490Z,86.60
2023-07-11T20:51:28.226Z,87.60
2023-07-11T20:53:52.068Z,87.40
2023-07-11T20:56:18.074Z,88.40
2023-07-11T20:58:41.893Z,88.70
2023-07-11T21:01:05.654Z,89.30
2023-07-11T21:03:31.864Z,90.10
2023-07-11T21:05:57.026Z,89.80
2023-07-11T21:08:29.144Z,89.30
2023-07-11T21:10:53.726Z,88.70
2023-07-11T21:13:17.438Z,88.50
2023-07-11T21:15:41.697Z,89.10
2023-07-11T21:18:06.654Z,89.40
2023-07-11T21:20:34.031Z,89.50
2023-07-11T21:22:59.860Z,89.40
2023-07-11T21:25:23.758Z,89.60
2023-07-11T21:27:47.460Z,89.20
2023-07-11T21:30:33.954Z,89.80
2023-07-11T21:32:58.153Z,89.80
2023-07-11T21:35:25.265Z,90.10
2023-07-11T21:37:48.973Z,90.20
2023-07-11T21:40:20.691Z,90.40
2023-07-11T21:42:44.425Z,90.50
2023-07-11T21:45:10.341Z,90.60
2023-07-11T21:47:34.628Z,90.70
2023-07-11T21:49:58.438Z,91.00
2023-07-11T21:52:23.032Z,91.00
2023-07-11T21:54:46.782Z,91.10
2023-07-11T21:57:15.545Z,91.10
2023-07-11T21:59:39.346Z,91.10
2023-07-11T22:02:03.167Z,91.20
2023-07-11T22:04:26.960Z,91.60
2023-07-11T22:06:50.765Z,91.40
2023-07-11T22:09:19.778Z,91.50
2023-07-11T22:11:43.526Z,91.50
2023-07-11T22:14:09.023Z,91.60
2023-07-11T22:16:32.870Z,91.70
2023-07-11T22:18:57.217Z,91.80
2023-07-11T22:21:22.646Z,92.20
2023-07-11T22:23:46.691Z,92.30
2023-07-11T22:26:14.995Z,92.30
2023-07-11T22:28:38.592Z,92.30
2023-07-11T22:31:03.899Z,92.40
2023-07-11T22:33:27.725Z,92.50
2023-07-11T22:35:51.482Z,92.50
2023-07-11T22:38:17.137Z,92.60
2023-07-11T22:40:43.176Z,92.70
2023-07-11T22:43:09.143Z,92.80
2023-07-11T22:45:34.160Z,92.70
2023-07-11T22:48:00.269Z,92.80
2023-07-11T22:50:30.939Z,92.90
2023-07-11T22:52:54.706Z,92.90
2023-07-11T22:55:19.892Z,92.90
2023-07-11T22:57:43.704Z,93.10
2023-07-11T23:00:16.770Z,93.10
2023-07-11T23:02:40.578Z,93.10
2023-07-11T23:05:06.402Z,93.10
2023-07-11T23:07:30.233Z,93.20
2023-07-11T23:09:53.961Z,92.90
2023-07-11T23:12:17.652Z,93.10
2023-07-11T23:14:41.353Z,93.10
2023-07-11T23:17:05.425Z,93.10
2023-07-11T23:19:29.355Z,93.10
2023-07-11T23:21:54.684Z,93.10
2023-07-11T23:24:18.340Z,93.10
2023-07-11T23:26:42.058Z,93.10
2023-07-11T23:29:06.209Z,93.20
2023-07-11T23:31:30.093Z,93.20
2023-07-11T23:33:53.883Z,93.30
2023-07-11T23:36:20.911Z,93.30
2023-07-11T23:38:48.543Z,93.30
2023-07-11T23:41:15.628Z,93.30
2023-07-11T23:43:41.546Z,93.20
2023-07-11T23:46:18.442Z,93.30
2023-07-11T23:48:43.251Z,93.30
2023-07-11T23:51:07.999Z,93.30
2023-07-11T23:53:32.216Z,93.30
2023-07-11T23:55:58.909Z,93.10
2023-07-11T23:58:24.971Z,93.20
